Orion II — 9HUT9 — position and weather

sailwx.info

Track history (hours):
 
Tides and Currents Weather Stations Pressure Air Temp Water Temp Dewpoint Dewpoint Depression Visibility Wind Speed Wind Dir Waves Ship Positions

Orion II

Last reported at 2019-Mar-22 11:59 UTC. Time now 2019-Mar-22 12:13 UTC.
Position N 37°22' W 005°60'.

Length 88 m; draft 4.1 m.

Type: Passenger vessel. MMSI: 249556000.

Date/timePositionNaut miles runAvg speedWind from/ knotsBaromVisibWave heightAir tempDewpointWater temp
2019-Mar-22 11:59N 37°22' W 005°60'0 0.0
2019-Mar-22 11:29N 37°22' W 005°60'0 0.0
2019-Mar-22 10:59N 37°22' W 005°60'0 0.0
2019-Mar-22 10:29N 37°22' W 005°60'0 0.0
2019-Mar-22 09:59N 37°22' W 005°60'0 0.0
2019-Mar-22 09:29N 37°22' W 005°60'0 0.0
2019-Mar-22 08:59N 37°22' W 005°60'0 0.0
2019-Mar-22 08:29N 37°22' W 005°60'0 0.0
2019-Mar-22 07:59N 37°22' W 005°60'0 0.0
2019-Mar-22 07:29N 37°22' W 005°60'0 0.0
2019-Mar-22 06:59N 37°22' W 005°60'0 0.0
2019-Mar-22 06:29N 37°22' W 005°60'0 0.0
2019-Mar-22 05:59N 37°22' W 005°60'0 0.0
2019-Mar-22 05:29N 37°22' W 005°60'0 0.0
2019-Mar-22 04:59N 37°22' W 005°60'0 0.0
2019-Mar-22 04:29N 37°22' W 005°60'0 0.0
2019-Mar-22 03:59N 37°22' W 005°60'0 0.0
2019-Mar-22 03:26N 37°22' W 005°60'0 0.0
2019-Mar-22 02:59N 37°22' W 005°60'0 0.0
2019-Mar-22 02:26N 37°22' W 005°60'0 0.0
2019-Mar-22 01:59N 37°22' W 005°60'0 0.0
2019-Mar-22 01:26N 37°22' W 005°60'0 0.0
2019-Mar-22 00:59N 37°22' W 005°60'0 0.0
2019-Mar-22 00:29N 37°22' W 005°60'0 0.0
2019-Mar-21 23:59N 37°22' W 005°60'0 0.0
2019-Mar-21 23:26N 37°22' W 005°60'0 0.0
2019-Mar-21 22:56N 37°22' W 005°60'0 0.0
2019-Mar-21 22:29N 37°22' W 005°60'0 0.0
2019-Mar-21 21:56N 37°22' W 005°60'0 0.0
2019-Mar-21 21:29N 37°22' W 005°60'0 0.0
2019-Mar-21 20:59N 37°22' W 005°60'0 0.0
2019-Mar-21 20:29N 37°22' W 005°60'0 0.0
2019-Mar-21 19:56N 37°22' W 005°60'0 0.0
2019-Mar-21 19:29N 37°22' W 005°60'0 0.0
2019-Mar-21 18:59N 37°22' W 005°60'0 0.0
2019-Mar-21 18:29N 37°22' W 005°60'0 0.0
2019-Mar-21 17:59N 37°22' W 005°60'0 0.0
2019-Mar-21 17:29N 37°22' W 005°60'0 0.0
2019-Mar-21 16:59N 37°22' W 005°60'0 0.0
2019-Mar-21 16:29N 37°22' W 005°60'0 0.0
2019-Mar-21 15:59N 37°22' W 005°60'0 0.0
2019-Mar-21 15:29N 37°22' W 005°60'0 0.0
2019-Mar-21 14:56N 37°22' W 005°60'0 0.0
2019-Mar-21 14:29N 37°22' W 005°60'0 0.0
2019-Mar-21 13:56N 37°22' W 005°60'0 0.0
2019-Mar-21 13:29N 37°22' W 005°60'0 0.0
2019-Mar-21 12:59N 37°22' W 005°60'0 0.0
2019-Mar-21 12:26N 37°22' W 005°60'0 0.0
2019-Mar-21 11:59N 37°22' W 005°60'0 0.0
2019-Mar-21 11:29N 37°22' W 005°60'0 0.0
2019-Mar-21 10:59N 37°22' W 005°60'0 0.0
2019-Mar-21 10:29N 37°22' W 005°60'0 0.0
2019-Mar-21 09:59N 37°22' W 005°60'0 0.0
2019-Mar-21 09:30N 37°22' W 005°60'0 1.0
2019-Mar-21 09:00N 37°22' W 005°60'0 0.0
2019-Mar-21 08:30N 37°22' W 005°60'0 0.0
2019-Mar-21 07:58N 37°22' W 005°60'0 0.0
2019-Mar-21 07:28N 37°22' W 005°60'0 0.1
2019-Mar-21 07:01N 37°22' W 005°60'1 2.7
2019-Mar-21 06:30N 37°21' W 005°60'1 3.0
2019-Mar-21 06:01N 37°19' W 006°00'0 0.8
2019-Mar-21 05:31N 37°19' W 006°01'2 4.8
2019-Mar-21 05:00N 37°17' W 006°03'3 6.9
2019-Mar-21 04:31N 37°14' W 006°04'4 8.0
2019-Mar-21 04:00N 37°10' W 006°06'510.0
2019-Mar-21 03:30N 37°05' W 006°05'5 9.5
2019-Mar-21 02:59N 37°02' W 006°09'9510.2
2019-Mar-20 17:40N 36°57' W 008°08'212.4
2019-Mar-20 17:30N 36°57' W 008°10'612.2
2019-Mar-20 17:00N 36°60' W 008°17'612.1
2019-Mar-20 16:30N 37°02' W 008°24'612.0
2019-Mar-20 16:00N 37°05' W 008°31'3 6.3
2019-Mar-20 15:30N 37°08' W 008°32'0 0.1
2019-Mar-20 14:58N 37°08' W 008°32'0 0.0
2019-Mar-20 14:28N 37°08' W 008°32'0 0.0
2019-Mar-20 13:57N 37°08' W 008°32'0 0.0
2019-Mar-20 13:27N 37°08' W 008°32'0 0.0
2019-Mar-20 12:51N 37°08' W 008°32'0 0.0
2019-Mar-20 12:27N 37°08' W 008°32'0 0.0
2019-Mar-20 11:57N 37°08' W 008°32'0 0.0
2019-Mar-20 11:21N 37°08' W 008°32'0 0.0
2019-Mar-20 10:57N 37°08' W 008°32'0 0.0
2019-Mar-20 10:27N 37°08' W 008°32'0 0.0
2019-Mar-20 09:57N 37°08' W 008°32'0 0.0
2019-Mar-20 09:21N 37°08' W 008°32'0 0.0
2019-Mar-20 08:57N 37°08' W 008°32'0 0.0
2019-Mar-20 08:27N 37°08' W 008°32'0 0.0
2019-Mar-20 07:57N 37°08' W 008°32'0 0.0
2019-Mar-20 07:27N 37°08' W 008°32'0 0.0
2019-Mar-20 06:57N 37°08' W 008°32'0 0.0
2019-Mar-20 06:15N 37°08' W 008°32'0 0.0
2019-Mar-20 05:57N 37°08' W 008°32'0 0.0
2019-Mar-20 05:27N 37°08' W 008°32'0 0.0
2019-Mar-20 04:57N 37°08' W 008°32'0 0.0
2019-Mar-20 04:27N 37°08' W 008°32'0 0.0
2019-Mar-20 03:57N 37°08' W 008°32'0 0.0
2019-Mar-20 03:27N 37°08' W 008°32'0 0.0
2019-Mar-20 02:57N 37°08' W 008°32'0 0.0
2019-Mar-20 02:27N 37°08' W 008°32'0 0.0
2019-Mar-20 01:57N 37°08' W 008°32'0 0.0
2019-Mar-20 01:27N 37°08' W 008°32'0 0.0
2019-Mar-20 00:57N 37°08' W 008°32'0 0.0
2019-Mar-20 00:30N 37°08' W 008°32'0 0.0
2019-Mar-19 23:57N 37°08' W 008°32'0 0.0
2019-Mar-19 23:27N 37°08' W 008°32'0 0.0
2019-Mar-19 22:57N 37°08' W 008°32'0 0.0
2019-Mar-19 22:27N 37°08' W 008°32'0 0.0
2019-Mar-19 21:57N 37°08' W 008°32'0 0.0
2019-Mar-19 21:27N 37°08' W 008°32'0 0.0
2019-Mar-19 20:57N 37°08' W 008°32'0 0.0
2019-Mar-19 20:30N 37°08' W 008°32'0 0.0
2019-Mar-19 19:51N 37°08' W 008°32'0 0.0
2019-Mar-19 19:30N 37°08' W 008°32'0 0.0
2019-Mar-19 18:57N 37°08' W 008°32'0 0.0
2019-Mar-19 18:27N 37°08' W 008°32'0 0.0
2019-Mar-19 17:57N 37°08' W 008°32'0 0.0
2019-Mar-19 17:27N 37°08' W 008°32'0 0.0
2019-Mar-19 16:57N 37°08' W 008°32'0 0.0
2019-Mar-19 16:21N 37°08' W 008°32'0 0.0
2019-Mar-19 15:57N 37°08' W 008°32'0 0.0
2019-Mar-19 15:27N 37°08' W 008°32'0 0.0
2019-Mar-19 15:00N 37°08' W 008°32'0 0.0
2019-Mar-19 14:27N 37°08' W 008°32'0 0.0
2019-Mar-19 13:57N 37°08' W 008°32'0 0.0
2019-Mar-19 13:27N 37°08' W 008°32'0 0.0
2019-Mar-19 12:57N 37°08' W 008°32'0 0.0
2019-Mar-19 12:27N 37°08' W 008°32'0 0.0
2019-Mar-19 11:57N 37°08' W 008°32'0 0.0
2019-Mar-19 11:27N 37°08' W 008°32'0 0.0
2019-Mar-19 10:57N 37°08' W 008°32'0 0.0
2019-Mar-19 10:27N 37°08' W 008°32'0 0.0
2019-Mar-19 09:57N 37°08' W 008°32'0 0.0
2019-Mar-19 09:27N 37°08' W 008°32'0 0.0
2019-Mar-19 08:57N 37°08' W 008°32'0 0.0
2019-Mar-19 08:27N 37°08' W 008°32'0 0.0
2019-Mar-19 07:57N 37°08' W 008°32'0 0.0
2019-Mar-19 07:27N 37°08' W 008°32'0 0.0
2019-Mar-19 06:57N 37°08' W 008°32'0 0.0
2019-Mar-19 06:27N 37°08' W 008°32'0 0.0
2019-Mar-19 05:33N 37°08' W 008°32'0 0.0
2019-Mar-19 05:21N 37°08' W 008°32'0 0.0
2019-Mar-19 04:57N 37°08' W 008°32'0 0.0
2019-Mar-19 03:39N 37°08' W 008°32'0 0.0
2019-Mar-19 03:27N 37°08' W 008°32'0 0.0
2019-Mar-19 02:45N 37°08' W 008°32'0 0.0
2019-Mar-19 02:21N 37°08' W 008°32'0 0.0
2019-Mar-19 01:57N 37°08' W 008°32'0 0.0
2019-Mar-19 01:27N 37°08' W 008°32'0 0.0
2019-Mar-19 00:57N 37°08' W 008°32'0 0.0
2019-Mar-19 00:27N 37°08' W 008°32'0 0.0
2019-Mar-18 23:45N 37°08' W 008°32'0 0.0
2019-Mar-18 23:27N 37°08' W 008°32'0 0.0
2019-Mar-18 22:57N 37°08' W 008°32'0 0.0
2019-Mar-18 22:27N 37°08' W 008°32'0 0.0
2019-Mar-18 21:57N 37°08' W 008°32'0 0.0
2019-Mar-18 21:27N 37°08' W 008°32'0 0.0
2019-Mar-18 20:51N 37°08' W 008°32'0 0.0
2019-Mar-18 20:21N 37°08' W 008°32'0 0.0
2019-Mar-18 19:57N 37°08' W 008°32'0 0.0
2019-Mar-18 19:27N 37°08' W 008°32'0 0.0
2019-Mar-18 18:57N 37°08' W 008°32'0 0.0
2019-Mar-18 18:27N 37°08' W 008°32'0 0.0
2019-Mar-18 17:57N 37°08' W 008°32'0 0.0
2019-Mar-18 17:27N 37°08' W 008°32'0 0.0
2019-Mar-18 16:57N 37°08' W 008°32'0 0.0
2019-Mar-18 16:27N 37°08' W 008°32'0 0.0
2019-Mar-18 15:57N 37°08' W 008°32'0 0.0
2019-Mar-18 15:27N 37°08' W 008°32'0 0.0
2019-Mar-18 14:51N 37°08' W 008°32'0 0.0
2019-Mar-18 14:21N 37°08' W 008°32'0 0.0
2019-Mar-18 13:57N 37°08' W 008°32'0 0.0
2019-Mar-18 13:27N 37°08' W 008°32'0 0.0
2019-Mar-18 12:57N 37°08' W 008°32'0 0.0
2019-Mar-18 12:27N 37°08' W 008°32'0 0.0
2019-Mar-18 11:57N 37°08' W 008°32'0 0.0
2019-Mar-18 11:21N 37°08' W 008°32'0 0.0
2019-Mar-18 10:57N 37°08' W 008°32'0 0.0
2019-Mar-18 10:21N 37°08' W 008°32'0 0.0
2019-Mar-18 09:57N 37°08' W 008°32'0 0.0
2019-Mar-18 09:27N 37°08' W 008°32'0 0.0
2019-Mar-18 08:57N 37°08' W 008°32'0 0.0
2019-Mar-18 08:27N 37°08' W 008°32'0 0.0
2019-Mar-18 07:57N 37°08' W 008°32'0 0.3
2019-Mar-18 07:30N 37°08' W 008°32'3 5.9
2019-Mar-18 07:00N 37°05' W 008°31'4 7.9
2019-Mar-18 06:30N 37°03' W 008°26'5 9.3
2019-Mar-18 06:00N 37°01' W 008°21'5 9.5
2019-Mar-18 05:30N 36°60' W 008°15'510.1
2019-Mar-18 05:00N 36°58' W 008°09'5 9.9
2019-Mar-18 04:30N 36°56' W 008°04'510.2
2019-Mar-18 04:00N 36°53' W 007°58'  
Track history (hours):
 
Tides and Currents Weather Stations Pressure Air Temp Water Temp Dewpoint Dewpoint Depression Visibility Wind Speed Wind Dir Waves Ship Positions

Orion II

Last reported at 2019-Mar-22 11:59 UTC. Time now 2019-Mar-22 12:13 UTC.
Position N 37°22' W 005°60'.

Length 88 m; draft 4.1 m.

Type: Passenger vessel. MMSI: 249556000.

Date/timePositionNaut miles runAvg speedWind from/ knotsBaromVisibWave heightAir tempDewpointWater temp
2019-Mar-22 11:59N 37°22' W 005°60'0 0.0
2019-Mar-22 11:29N 37°22' W 005°60'0 0.0
2019-Mar-22 10:59N 37°22' W 005°60'0 0.0
2019-Mar-22 10:29N 37°22' W 005°60'0 0.0
2019-Mar-22 09:59N 37°22' W 005°60'0 0.0
2019-Mar-22 09:29N 37°22' W 005°60'0 0.0
2019-Mar-22 08:59N 37°22' W 005°60'0 0.0
2019-Mar-22 08:29N 37°22' W 005°60'0 0.0
2019-Mar-22 07:59N 37°22' W 005°60'0 0.0
2019-Mar-22 07:29N 37°22' W 005°60'0 0.0
2019-Mar-22 06:59N 37°22' W 005°60'0 0.0
2019-Mar-22 06:29N 37°22' W 005°60'0 0.0
2019-Mar-22 05:59N 37°22' W 005°60'0 0.0
2019-Mar-22 05:29N 37°22' W 005°60'0 0.0
2019-Mar-22 04:59N 37°22' W 005°60'0 0.0
2019-Mar-22 04:29N 37°22' W 005°60'0 0.0
2019-Mar-22 03:59N 37°22' W 005°60'0 0.0
2019-Mar-22 03:26N 37°22' W 005°60'0 0.0
2019-Mar-22 02:59N 37°22' W 005°60'0 0.0
2019-Mar-22 02:26N 37°22' W 005°60'0 0.0
2019-Mar-22 01:59N 37°22' W 005°60'0 0.0
2019-Mar-22 01:26N 37°22' W 005°60'0 0.0
2019-Mar-22 00:59N 37°22' W 005°60'0 0.0
2019-Mar-22 00:29N 37°22' W 005°60'0 0.0
2019-Mar-21 23:59N 37°22' W 005°60'0 0.0
2019-Mar-21 23:26N 37°22' W 005°60'0 0.0
2019-Mar-21 22:56N 37°22' W 005°60'0 0.0
2019-Mar-21 22:29N 37°22' W 005°60'0 0.0
2019-Mar-21 21:56N 37°22' W 005°60'0 0.0
2019-Mar-21 21:29N 37°22' W 005°60'0 0.0
2019-Mar-21 20:59N 37°22' W 005°60'0 0.0
2019-Mar-21 20:29N 37°22' W 005°60'0 0.0
2019-Mar-21 19:56N 37°22' W 005°60'0 0.0
2019-Mar-21 19:29N 37°22' W 005°60'0 0.0
2019-Mar-21 18:59N 37°22' W 005°60'0 0.0
2019-Mar-21 18:29N 37°22' W 005°60'0 0.0
2019-Mar-21 17:59N 37°22' W 005°60'0 0.0
2019-Mar-21 17:29N 37°22' W 005°60'0 0.0
2019-Mar-21 16:59N 37°22' W 005°60'0 0.0
2019-Mar-21 16:29N 37°22' W 005°60'0 0.0
2019-Mar-21 15:59N 37°22' W 005°60'0 0.0
2019-Mar-21 15:29N 37°22' W 005°60'0 0.0
2019-Mar-21 14:56N 37°22' W 005°60'0 0.0
2019-Mar-21 14:29N 37°22' W 005°60'0 0.0
2019-Mar-21 13:56N 37°22' W 005°60'0 0.0
2019-Mar-21 13:29N 37°22' W 005°60'0 0.0
2019-Mar-21 12:59N 37°22' W 005°60'0 0.0
2019-Mar-21 12:26N 37°22' W 005°60'0 0.0
2019-Mar-21 11:59N 37°22' W 005°60'0 0.0
2019-Mar-21 11:29N 37°22' W 005°60'0 0.0
2019-Mar-21 10:59N 37°22' W 005°60'0 0.0
2019-Mar-21 10:29N 37°22' W 005°60'0 0.0
2019-Mar-21 09:59N 37°22' W 005°60'0 0.0
2019-Mar-21 09:30N 37°22' W 005°60'0 1.0
2019-Mar-21 09:00N 37°22' W 005°60'0 0.0
2019-Mar-21 08:30N 37°22' W 005°60'0 0.0
2019-Mar-21 07:58N 37°22' W 005°60'0 0.0
2019-Mar-21 07:28N 37°22' W 005°60'0 0.1
2019-Mar-21 07:01N 37°22' W 005°60'1 2.7
2019-Mar-21 06:30N 37°21' W 005°60'1 3.0
2019-Mar-21 06:01N 37°19' W 006°00'0 0.8
2019-Mar-21 05:31N 37°19' W 006°01'2 4.8
2019-Mar-21 05:00N 37°17' W 006°03'3 6.9
2019-Mar-21 04:31N 37°14' W 006°04'4 8.0
2019-Mar-21 04:00N 37°10' W 006°06'510.0
2019-Mar-21 03:30N 37°05' W 006°05'5 9.5
2019-Mar-21 02:59N 37°02' W 006°09'9510.2
2019-Mar-20 17:40N 36°57' W 008°08'212.4
2019-Mar-20 17:30N 36°57' W 008°10'612.2
2019-Mar-20 17:00N 36°60' W 008°17'612.1
2019-Mar-20 16:30N 37°02' W 008°24'612.0
2019-Mar-20 16:00N 37°05' W 008°31'3 6.3
2019-Mar-20 15:30N 37°08' W 008°32'0 0.1
2019-Mar-20 14:58N 37°08' W 008°32'0 0.0
2019-Mar-20 14:28N 37°08' W 008°32'0 0.0
2019-Mar-20 13:57N 37°08' W 008°32'0 0.0
2019-Mar-20 13:27N 37°08' W 008°32'0 0.0
2019-Mar-20 12:51N 37°08' W 008°32'0 0.0
2019-Mar-20 12:27N 37°08' W 008°32'0 0.0
2019-Mar-20 11:57N 37°08' W 008°32'0 0.0
2019-Mar-20 11:21N 37°08' W 008°32'0 0.0
2019-Mar-20 10:57N 37°08' W 008°32'0 0.0
2019-Mar-20 10:27N 37°08' W 008°32'0 0.0
2019-Mar-20 09:57N 37°08' W 008°32'0 0.0
2019-Mar-20 09:21N 37°08' W 008°32'0 0.0
2019-Mar-20 08:57N 37°08' W 008°32'0 0.0
2019-Mar-20 08:27N 37°08' W 008°32'0 0.0
2019-Mar-20 07:57N 37°08' W 008°32'0 0.0
2019-Mar-20 07:27N 37°08' W 008°32'0 0.0
2019-Mar-20 06:57N 37°08' W 008°32'0 0.0
2019-Mar-20 06:15N 37°08' W 008°32'0 0.0
2019-Mar-20 05:57N 37°08' W 008°32'0 0.0
2019-Mar-20 05:27N 37°08' W 008°32'0 0.0
2019-Mar-20 04:57N 37°08' W 008°32'0 0.0
2019-Mar-20 04:27N 37°08' W 008°32'0 0.0
2019-Mar-20 03:57N 37°08' W 008°32'0 0.0
2019-Mar-20 03:27N 37°08' W 008°32'0 0.0
2019-Mar-20 02:57N 37°08' W 008°32'0 0.0
2019-Mar-20 02:27N 37°08' W 008°32'0 0.0
2019-Mar-20 01:57N 37°08' W 008°32'0 0.0
2019-Mar-20 01:27N 37°08' W 008°32'0 0.0
2019-Mar-20 00:57N 37°08' W 008°32'0 0.0
2019-Mar-20 00:30N 37°08' W 008°32'0 0.0
2019-Mar-19 23:57N 37°08' W 008°32'0 0.0
2019-Mar-19 23:27N 37°08' W 008°32'0 0.0
2019-Mar-19 22:57N 37°08' W 008°32'0 0.0
2019-Mar-19 22:27N 37°08' W 008°32'0 0.0
2019-Mar-19 21:57N 37°08' W 008°32'0 0.0
2019-Mar-19 21:27N 37°08' W 008°32'0 0.0
2019-Mar-19 20:57N 37°08' W 008°32'0 0.0
2019-Mar-19 20:30N 37°08' W 008°32'0 0.0
2019-Mar-19 19:51N 37°08' W 008°32'0 0.0
2019-Mar-19 19:30N 37°08' W 008°32'0 0.0
2019-Mar-19 18:57N 37°08' W 008°32'0 0.0
2019-Mar-19 18:27N 37°08' W 008°32'0 0.0
2019-Mar-19 17:57N 37°08' W 008°32'0 0.0
2019-Mar-19 17:27N 37°08' W 008°32'0 0.0
2019-Mar-19 16:57N 37°08' W 008°32'0 0.0
2019-Mar-19 16:21N 37°08' W 008°32'0 0.0
2019-Mar-19 15:57N 37°08' W 008°32'0 0.0
2019-Mar-19 15:27N 37°08' W 008°32'0 0.0
2019-Mar-19 15:00N 37°08' W 008°32'0 0.0
2019-Mar-19 14:27N 37°08' W 008°32'0 0.0
2019-Mar-19 13:57N 37°08' W 008°32'0 0.0
2019-Mar-19 13:27N 37°08' W 008°32'0 0.0
2019-Mar-19 12:57N 37°08' W 008°32'0 0.0
2019-Mar-19 12:27N 37°08' W 008°32'0 0.0
2019-Mar-19 11:57N 37°08' W 008°32'0 0.0
2019-Mar-19 11:27N 37°08' W 008°32'0 0.0
2019-Mar-19 10:57N 37°08' W 008°32'0 0.0
2019-Mar-19 10:27N 37°08' W 008°32'0 0.0
2019-Mar-19 09:57N 37°08' W 008°32'0 0.0
2019-Mar-19 09:27N 37°08' W 008°32'0 0.0
2019-Mar-19 08:57N 37°08' W 008°32'0 0.0
2019-Mar-19 08:27N 37°08' W 008°32'0 0.0
2019-Mar-19 07:57N 37°08' W 008°32'0 0.0
2019-Mar-19 07:27N 37°08' W 008°32'0 0.0
2019-Mar-19 06:57N 37°08' W 008°32'0 0.0
2019-Mar-19 06:27N 37°08' W 008°32'0 0.0
2019-Mar-19 05:33N 37°08' W 008°32'0 0.0
2019-Mar-19 05:21N 37°08' W 008°32'0 0.0
2019-Mar-19 04:57N 37°08' W 008°32'0 0.0
2019-Mar-19 03:39N 37°08' W 008°32'0 0.0
2019-Mar-19 03:27N 37°08' W 008°32'0 0.0
2019-Mar-19 02:45N 37°08' W 008°32'0 0.0
2019-Mar-19 02:21N 37°08' W 008°32'0 0.0
2019-Mar-19 01:57N 37°08' W 008°32'0 0.0
2019-Mar-19 01:27N 37°08' W 008°32'0 0.0
2019-Mar-19 00:57N 37°08' W 008°32'0 0.0
2019-Mar-19 00:27N 37°08' W 008°32'0 0.0
2019-Mar-18 23:45N 37°08' W 008°32'0 0.0
2019-Mar-18 23:27N 37°08' W 008°32'0 0.0
2019-Mar-18 22:57N 37°08' W 008°32'0 0.0
2019-Mar-18 22:27N 37°08' W 008°32'0 0.0
2019-Mar-18 21:57N 37°08' W 008°32'0 0.0
2019-Mar-18 21:27N 37°08' W 008°32'0 0.0
2019-Mar-18 20:51N 37°08' W 008°32'0 0.0
2019-Mar-18 20:21N 37°08' W 008°32'0 0.0
2019-Mar-18 19:57N 37°08' W 008°32'0 0.0
2019-Mar-18 19:27N 37°08' W 008°32'0 0.0
2019-Mar-18 18:57N 37°08' W 008°32'0 0.0
2019-Mar-18 18:27N 37°08' W 008°32'0 0.0
2019-Mar-18 17:57N 37°08' W 008°32'0 0.0
2019-Mar-18 17:27N 37°08' W 008°32'0 0.0
2019-Mar-18 16:57N 37°08' W 008°32'0 0.0
2019-Mar-18 16:27N 37°08' W 008°32'0 0.0
2019-Mar-18 15:57N 37°08' W 008°32'0 0.0
2019-Mar-18 15:27N 37°08' W 008°32'0 0.0
2019-Mar-18 14:51N 37°08' W 008°32'0 0.0
2019-Mar-18 14:21N 37°08' W 008°32'0 0.0
2019-Mar-18 13:57N 37°08' W 008°32'0 0.0
2019-Mar-18 13:27N 37°08' W 008°32'0 0.0
2019-Mar-18 12:57N 37°08' W 008°32'0 0.0
2019-Mar-18 12:27N 37°08' W 008°32'0 0.0
2019-Mar-18 11:57N 37°08' W 008°32'0 0.0
2019-Mar-18 11:21N 37°08' W 008°32'0 0.0
2019-Mar-18 10:57N 37°08' W 008°32'0 0.0
2019-Mar-18 10:21N 37°08' W 008°32'0 0.0
2019-Mar-18 09:57N 37°08' W 008°32'0 0.0
2019-Mar-18 09:27N 37°08' W 008°32'0 0.0
2019-Mar-18 08:57N 37°08' W 008°32'0 0.0
2019-Mar-18 08:27N 37°08' W 008°32'0 0.0
2019-Mar-18 07:57N 37°08' W 008°32'0 0.3
2019-Mar-18 07:30N 37°08' W 008°32'3 5.9
2019-Mar-18 07:00N 37°05' W 008°31'4 7.9
2019-Mar-18 06:30N 37°03' W 008°26'5 9.3
2019-Mar-18 06:00N 37°01' W 008°21'5 9.5
2019-Mar-18 05:30N 36°60' W 008°15'510.1
2019-Mar-18 05:00N 36°58' W 008°09'5 9.9
2019-Mar-18 04:30N 36°56' W 008°04'510.2
2019-Mar-18 04:00N 36°53' W 007°58'  

Dump ship's entire track history